Time;durP1;ratioP1;P1;durP2;ratioP2;P2;SDS_P1;SDS_P2;PMS_P1;PMS_P2;Temp;Humidity;BMP_temperature;BMP_pressure;BME280_temperature;BME280_humidity;BME280_pressure;Samples;Min_cycle;Max_cycle;Signal;HPM_P1;HPM_P2
2022/08/25 00:00:34;;;;;;;3.70;3.40;;;;;;;22.90;56.01;98842.19;7036250;28;20676;-81
2022/08/25 00:03:56;;;;;;;3.80;3.40;;;;;;;23.15;54.57;98828.31;7037647;28;20703;-82
2022/08/25 00:07:18;;;;;;;4.77;4.23;;;;;;;23.06;55.56;98829.19;7036045;28;20252;-81
2022/08/25 00:10:41;;;;;;;4.13;3.73;;;;;;;22.95;55.44;98822.91;7036945;28;20250;-82
2022/08/25 00:14:10;;;;;;;3.93;3.63;;;;;;;22.98;55.66;98814.13;7035871;28;20324;-81
2022/08/25 00:17:33;;;;;;;3.87;3.37;;;;;;;23.23;54.60;98813.13;7035054;28;20187;-82
2022/08/25 00:20:55;;;;;;;4.80;3.70;;;;;;;23.06;54.88;98816.25;7037000;28;20194;-81
2022/08/25 00:24:19;;;;;;;4.53;4.07;;;;;;;22.97;55.96;98817.97;7036586;28;20638;-82
2022/08/25 00:27:42;;;;;;;3.47;3.17;;;;;;;23.15;54.60;98828.31;7035304;28;20225;-81
2022/08/25 00:31:05;;;;;;;4.87;3.67;;;;;;;22.96;55.30;98835.56;7035997;28;20212;-81
2022/08/25 00:34:30;;;;;;;3.60;3.30;;;;;;;23.10;55.26;98814.59;7036203;28;20270;-81
2022/08/25 00:37:51;;;;;;;4.10;3.37;;;;;;;23.30;54.72;98822.72;7035895;28;20294;-80
2022/08/25 00:41:18;;;;;;;3.60;3.30;;;;;;;23.32;54.54;98825.19;7048447;28;20200;-83
2022/08/25 00:44:42;;;;;;;3.73;3.43;;;;;;;23.33;53.95;98835.91;7006097;28;20322;-81
2022/08/25 00:48:05;;;;;;;4.10;3.70;;;;;;;22.87;55.38;98829.03;7030901;28;20210;-81
2022/08/25 00:51:32;;;;;;;4.20;3.80;;;;;;;23.20;54.70;98799.97;7034547;28;20206;-81
2022/08/25 00:54:56;;;;;;;4.27;3.87;;;;;;;23.41;53.46;98788.50;7034440;28;20238;-81
2022/08/25 00:58:20;;;;;;;5.27;3.63;;;;;;;23.18;54.84;98829.69;7033144;28;20259;-81
2022/08/25 01:01:43;;;;;;;5.60;3.90;;;;;;;23.17;55.02;98822.53;7035195;28;20236;-82
2022/08/25 01:05:06;;;;;;;4.37;3.97;;;;;;;22.90;55.05;98803.69;7034190;28;20315;-81
2022/08/25 01:08:29;;;;;;;4.87;3.30;;;;;;;23.34;54.29;98812.78;7033961;28;20201;-82
2022/08/25 01:11:51;;;;;;;3.67;3.37;;;;;;;23.16;54.28;98798.84;7036005;28;20668;-82
2022/08/25 01:15:14;;;;;;;4.17;3.77;;;;;;;23.25;53.80;98791.69;7035660;28;20594;-81
2022/08/25 01:18:49;;;;;;;5.20;4.10;;;;;;;23.26;54.20;98802.38;7034703;28;20339;-81
2022/08/25 01:22:12;;;;;;;4.53;3.80;;;;;;;22.73;54.91;98795.00;7038208;28;20269;-81
2022/08/25 01:25:39;;;;;;;4.33;3.93;;;;;;;22.94;55.64;98812.19;7048480;28;20254;-81
2022/08/25 01:29:24;;;;;;;3.90;3.50;;;;;;;22.87;55.87;98809.78;7039111;28;20205;-81
2022/08/25 01:32:45;;;;;;;5.50;4.20;;;;;;;22.88;55.45;98808.66;7034309;28;20234;-81
2022/08/25 01:36:07;;;;;;;5.90;4.53;;;;;;;22.91;55.58;98810.88;7034093;28;20318;-81
2022/08/25 01:39:32;;;;;;;4.53;4.07;;;;;;;22.64;56.13;98793.13;7005759;28;20295;-81
2022/08/25 01:42:59;;;;;;;5.70;4.03;;;;;;;22.86;55.83;98799.88;7005565;28;20242;-81
2022/08/25 01:46:21;;;;;;;4.53;4.13;;;;;;;22.97;55.18;98811.66;7005458;28;20230;-81
2022/08/25 01:49:42;;;;;;;5.13;3.87;;;;;;;22.82;55.46;98806.22;7004670;28;20241;-81
2022/08/25 01:53:07;;;;;;;4.30;3.77;;;;;;;22.56;56.02;98794.56;7004948;28;20293;-81
2022/08/25 01:56:30;;;;;;;4.60;3.77;;;;;;;22.71;56.11;98810.16;7004367;28;20237;-80
2022/08/25 01:59:52;;;;;;;4.07;3.77;;;;;;;22.65;55.64;98781.06;7003938;28;20291;-81
2022/08/25 02:03:13;;;;;;;4.33;3.93;;;;;;;22.56;56.30;98796.47;7004899;28;20252;-81
2022/08/25 02:06:36;;;;;;;5.00;4.50;;;;;;;22.60;56.62;98814.06;7002966;28;20269;-81
2022/08/25 02:09:58;;;;;;;5.17;4.07;;;;;;;22.39;56.72;98790.47;7003761;28;20230;-81
2022/08/25 02:13:21;;;;;;;4.93;4.43;;;;;;;22.70;56.57;98800.25;7004205;28;20206;-80
2022/08/25 02:16:47;;;;;;;4.70;4.30;;;;;;;22.45;56.57;98803.94;7003877;28;20224;-83
2022/08/25 02:20:09;;;;;;;7.30;4.40;;;;;;;22.53;55.85;98786.88;7002837;28;20184;-81
2022/08/25 02:23:30;;;;;;;5.50;5.00;;;;;;;22.60;56.68;98814.06;7003462;28;20207;-80
2022/08/25 02:26:52;;;;;;;5.13;4.63;;;;;;;22.36;56.73;98802.84;7004429;28;20362;-81
2022/08/25 02:30:16;;;;;;;5.07;4.43;;;;;;;22.65;55.91;98812.09;7003234;28;20716;-81
2022/08/25 02:33:38;;;;;;;5.50;4.20;;;;;;;22.09;57.26;98818.06;7003704;28;20289;-80
2022/08/25 02:37:00;;;;;;;4.83;4.43;;;;;;;22.55;56.76;98806.63;7003789;28;20340;-81
2022/08/25 02:40:22;;;;;;;4.57;4.17;;;;;;;22.52;56.58;98811.88;7002621;28;20207;-81
2022/08/25 02:43:44;;;;;;;4.80;4.40;;;;;;;22.51;56.10;98797.34;7003312;28;20249;-81
2022/08/25 02:47:07;;;;;;;4.90;4.50;;;;;;;22.36;56.01;98802.84;7003225;28;20705;-80
2022/08/25 02:50:29;;;;;;;5.33;4.83;;;;;;;22.05;57.40;98805.97;7002848;28;20696;-81
2022/08/25 02:53:51;;;;;;;5.03;4.63;;;;;;;21.57;58.55;98807.41;7002597;28;20318;-81
2022/08/25 02:57:13;;;;;;;5.40;4.57;;;;;;;21.87;58.02;98803.81;7003075;28;20261;-81
2022/08/25 03:00:35;;;;;;;4.90;4.50;;;;;;;22.03;57.13;98798.03;7002515;28;20284;-81
2022/08/25 03:03:58;;;;;;;4.70;4.30;;;;;;;22.06;57.40;98802.94;7003022;28;20264;-81
2022/08/25 03:07:20;;;;;;;5.47;4.40;;;;;;;22.51;56.09;98804.75;7000556;28;20260;-82
2022/08/25 03:10:42;;;;;;;5.03;4.43;;;;;;;22.28;56.21;98794.34;7002678;28;20224;-81
2022/08/25 03:14:04;;;;;;;5.27;4.77;;;;;;;22.41;55.80;98793.75;7003286;28;20429;-81
2022/08/25 03:17:25;;;;;;;5.20;4.70;;;;;;;22.04;56.39;98805.16;7002118;28;20287;-81
2022/08/25 03:20:48;;;;;;;5.50;4.90;;;;;;;21.93;56.83;98798.03;7002357;28;20245;-82
2022/08/25 03:24:10;;;;;;;6.33;4.77;;;;;;;21.97;56.99;98799.16;7002895;28;20235;-81
2022/08/25 03:27:31;;;;;;;4.90;4.50;;;;;;;22.05;56.55;98808.72;7002989;28;20709;-80
2022/08/25 03:30:53;;;;;;;5.53;5.03;;;;;;;22.02;56.14;98804.59;7003313;28;20268;-81
2022/08/25 03:34:16;;;;;;;5.53;4.90;;;;;;;21.77;56.69;98782.69;7002341;28;20232;-81
2022/08/25 03:37:39;;;;;;;6.03;5.17;;;;;;;21.70;57.17;98800.53;7002356;28;20744;-81
2022/08/25 03:41:01;;;;;;;5.60;5.10;;;;;;;21.57;57.77;98792.84;7002548;28;20694;-81
2022/08/25 03:44:23;;;;;;;6.53;4.97;;;;;;;21.84;57.31;98813.44;7003109;28;20230;-81
2022/08/25 03:47:46;;;;;;;5.40;4.90;;;;;;;21.61;57.01;98792.00;7001805;28;20248;-82
2022/08/25 03:51:07;;;;;;;5.87;4.80;;;;;;;21.63;57.31;98827.41;7002056;28;20286;-81
2022/08/25 03:54:30;;;;;;;5.40;5.00;;;;;;;21.42;58.07;98817.56;7001673;28;20318;-81
2022/08/25 03:57:53;;;;;;;6.93;5.27;;;;;;;21.31;58.58;98802.19;7002064;28;20273;-81
2022/08/25 04:01:15;;;;;;;5.93;5.33;;;;;;;21.21;58.96;98807.66;7001481;28;20214;-81
2022/08/25 04:04:36;;;;;;;5.37;4.87;;;;;;;21.56;57.90;98811.25;6999550;28;20228;-81
2022/08/25 04:08:00;;;;;;;7.83;5.27;;;;;;;21.49;58.47;98807.94;7001539;28;20231;-81
2022/08/25 04:11:23;;;;;;;6.17;5.50;;;;;;;21.06;59.34;98782.16;7013400;28;20199;-81
2022/08/25 04:14:45;;;;;;;6.70;5.63;;;;;;;21.67;57.93;98790.94;7022864;28;20233;-81
2022/08/25 04:18:06;;;;;;;7.03;4.67;;;;;;;21.68;57.20;98778.06;7032137;28;20235;-80
2022/08/25 04:21:28;;;;;;;5.83;5.27;;;;;;;21.60;57.84;98779.41;7029584;28;20228;-81
2022/08/25 04:24:50;;;;;;;5.77;5.27;;;;;;;21.63;57.39;98783.50;7010814;28;20310;-81
2022/08/25 04:28:12;;;;;;;6.57;5.43;;;;;;;21.76;57.66;98799.44;7008858;28;20305;-80
2022/08/25 04:31:34;;;;;;;6.30;5.70;;;;;;;20.75;57.66;98753.03;7033023;28;20555;-80
2022/08/25 04:34:56;;;;;;;8.63;5.53;;;;;;;20.76;59.61;98802.06;7033340;28;20217;-80
2022/08/25 04:38:17;;;;;;;7.13;5.50;;;;;;;21.17;58.95;98815.63;7012538;28;20216;-81
2022/08/25 04:41:42;;;;;;;6.40;5.80;;;;;;;21.05;58.78;98788.75;7038877;28;20212;-82
2022/08/25 04:45:06;;;;;;;6.07;5.23;;;;;;;21.27;58.42;98803.84;7019175;28;20224;-81
2022/08/25 04:48:27;;;;;;;6.27;5.70;;;;;;;21.07;58.99;98806.56;7007863;28;20261;-80
2022/08/25 04:51:49;;;;;;;8.23;6.10;;;;;;;21.13;59.38;98817.25;7008338;28;20228;-81
2022/08/25 04:55:10;;;;;;;10.37;7.00;;;;;;;20.85;58.95;98822.38;7008295;28;20260;-81
2022/08/25 04:58:32;;;;;;;8.33;5.97;;;;;;;20.87;59.55;98825.66;7009982;28;20222;-81
2022/08/25 05:01:56;;;;;;;7.47;5.37;;;;;;;21.06;59.29;98821.38;7008119;28;20204;-81
2022/08/25 05:05:18;;;;;;;7.07;6.07;;;;;;;21.00;59.68;98805.19;7022397;28;20708;-81
2022/08/25 05:08:40;;;;;;;6.53;5.90;;;;;;;21.17;58.85;98819.47;7034201;28;20288;-80
2022/08/25 05:12:02;;;;;;;6.37;5.70;;;;;;;21.25;58.41;98809.59;7018761;28;20201;-82
2022/08/25 05:19:04;;;;;;;6.73;6.07;;;;;;;21.12;59.65;98819.44;7013070;28;20192;-81
2022/08/25 05:22:25;;;;;;;6.93;6.23;;;;;;;21.18;60.05;98820.00;7033818;28;20215;-81
2022/08/25 05:25:47;;;;;;;6.97;6.20;;;;;;;21.60;58.54;98804.09;7023001;28;20319;-81
2022/08/25 05:29:09;;;;;;;7.03;6.43;;;;;;;20.96;58.67;98744.59;7027467;28;20728;-81
2022/08/25 05:32:31;;;;;;;8.67;5.67;;;;;;;21.67;57.07;98801.13;7027304;28;20210;-81
2022/08/25 05:35:54;;;;;;;7.70;6.93;;;;;;;21.24;57.84;98785.19;7024666;28;20236;-81
2022/08/25 05:39:16;;;;;;;7.70;6.80;;;;;;;21.52;59.35;98812.06;7028824;28;20298;-81
2022/08/25 05:42:37;;;;;;;6.13;5.60;;;;;;;21.90;57.81;98806.81;7034903;28;20295;-81
2022/08/25 05:46:00;;;;;;;6.43;5.87;;;;;;;21.97;57.86;98799.16;7021246;28;20583;-81
2022/08/25 05:49:21;;;;;;;6.73;6.13;;;;;;;22.52;56.23;98806.38;7012772;28;20224;-81
2022/08/25 05:52:45;;;;;;;7.47;6.10;;;;;;;22.64;56.55;98802.22;7025149;28;20301;-81
2022/08/25 05:56:07;;;;;;;6.10;5.60;;;;;;;23.25;55.07;98788.94;7034309;28;20242;-81
2022/08/25 05:59:30;;;;;;;8.30;5.90;;;;;;;23.64;54.12;98778.66;7034894;28;20197;-80
2022/08/25 06:02:52;;;;;;;7.90;5.40;;;;;;;24.57;51.23;98774.34;7037170;28;20207;-81
2022/08/25 06:06:14;;;;;;;6.63;5.07;;;;;;;25.05;49.69;98765.66;7043340;28;20711;-80
2022/08/25 06:09:39;;;;;;;6.67;5.87;;;;;;;24.66;50.75;98758.81;7034033;28;20737;-81
2022/08/25 06:13:00;;;;;;;7.33;6.13;;;;;;;25.02;49.46;98757.97;7033418;28;20213;-81
2022/08/25 06:16:22;;;;;;;6.17;5.63;;;;;;;24.99;50.00;98772.38;7018216;28;20244;-81
2022/08/25 06:19:43;;;;;;;7.33;5.77;;;;;;;25.12;50.02;98757.00;7021091;28;20201;-81
2022/08/25 06:23:05;;;;;;;6.27;5.67;;;;;;;25.11;49.85;98758.94;7034306;28;20208;-81
2022/08/25 06:26:28;;;;;;;6.73;6.07;;;;;;;25.36;49.29;98742.00;7014377;28;20230;-82
2022/08/25 06:29:49;;;;;;;7.13;5.90;;;;;;;25.96;48.17;98757.50;7013749;28;20203;-82
2022/08/25 06:33:11;;;;;;;7.63;5.83;;;;;;;25.46;48.47;98696.81;7022769;28;20252;-81
2022/08/25 06:36:33;;;;;;;7.77;6.17;;;;;;;26.16;48.00;98772.88;7025203;28;20260;-81
2022/08/25 06:39:54;;;;;;;5.90;5.40;;;;;;;26.28;46.92;98674.47;7004229;28;20734;-81
2022/08/25 06:43:18;;;;;;;6.00;5.50;;;;;;;27.20;45.70;98764.25;7004539;28;20310;-81
2022/08/25 06:46:39;;;;;;;6.87;6.00;;;;;;;27.05;46.17;98770.13;7004213;28;20320;-82
2022/08/25 06:50:02;;;;;;;6.67;6.03;;;;;;;27.60;45.14;98774.31;7018940;28;20272;-82
2022/08/25 06:53:24;;;;;;;6.60;5.80;;;;;;;27.64;45.01;98763.41;7033200;28;20207;-81
2022/08/25 06:56:46;;;;;;;6.17;5.67;;;;;;;28.08;44.24;98764.16;7033457;28;20209;-83
2022/08/25 07:00:10;;;;;;;8.00;5.87;;;;;;;27.87;44.80;98770.59;7033084;28;20217;-81
2022/08/25 07:03:34;;;;;;;6.47;5.83;;;;;;;28.84;42.66;98757.28;7031901;28;20216;-83
2022/08/25 07:06:55;;;;;;;6.97;6.27;;;;;;;28.67;42.58;98749.72;7032920;28;20273;-81
2022/08/25 07:10:17;;;;;;;5.93;5.43;;;;;;;29.06;43.35;98766.28;7032531;28;20206;-81
2022/08/25 07:13:39;;;;;;;6.53;5.93;;;;;;;29.65;40.92;98754.34;7033026;28;20239;-85
2022/08/25 07:17:01;;;;;;;6.50;5.90;;;;;;;29.30;40.78;98754.72;7033036;28;20209;-83
2022/08/25 07:20:23;;;;;;;5.73;5.23;;;;;;;29.38;40.94;98735.22;7032485;28;20253;-83
2022/08/25 07:23:45;;;;;;;6.03;5.53;;;;;;;28.58;42.56;98740.56;7033074;28;20226;-82
2022/08/25 07:27:06;;;;;;;6.93;6.03;;;;;;;28.17;43.30;98755.91;7033375;28;20232;-82
2022/08/25 07:30:28;;;;;;;6.57;5.90;;;;;;;28.34;42.93;98754.03;7032963;28;20239;-83
2022/08/25 07:37:26;;;;;;;6.10;5.60;;;;;;;28.92;41.90;98743.41;6998894;28;20206;-82
2022/08/25 07:40:53;;;;;;;6.47;5.87;;;;;;;27.82;44.19;98715.31;7034439;28;20251;-82
2022/08/25 07:44:15;;;;;;;6.43;5.73;;;;;;;29.67;40.66;98740.13;7033739;28;20230;-82
2022/08/25 07:47:36;;;;;;;6.60;6.00;;;;;;;28.67;42.37;98744.16;7033153;28;20222;-82
2022/08/25 07:50:59;;;;;;;6.13;5.63;;;;;;;27.95;44.29;98734.59;7020288;28;20206;-82
2022/08/25 07:54:21;;;;;;;8.40;5.73;;;;;;;28.64;43.97;98736.50;7014019;28;20220;-83
2022/08/25 07:57:43;;;;;;;6.17;5.63;;;;;;;29.11;42.34;98729.22;7033662;28;20200;-83
2022/08/25 08:01:05;;;;;;;6.27;5.77;;;;;;;28.43;43.06;98726.34;7017373;28;20209;-83
2022/08/25 08:04:26;;;;;;;6.93;5.40;;;;;;;28.59;43.35;98736.66;7009161;28;20222;-83
2022/08/25 08:07:49;;;;;;;6.77;6.17;;;;;;;28.79;42.63;98736.00;7025742;28;20227;-84
2022/08/25 08:11:15;;;;;;;6.40;5.80;;;;;;;29.08;42.04;98736.22;7033670;28;20199;-83
2022/08/25 08:14:37;;;;;;;9.60;5.93;;;;;;;29.94;40.53;98734.16;7014587;28;20273;-83
2022/08/25 08:17:59;;;;;;;5.93;5.27;;;;;;;29.22;41.24;98709.13;7036452;28;20711;-82
2022/08/25 08:21:22;;;;;;;6.20;5.60;;;;;;;29.29;41.60;98740.00;7036732;28;20202;-83
2022/08/25 08:24:46;;;;;;;5.97;5.37;;;;;;;28.39;43.14;98739.22;7036160;28;20586;-83
2022/08/25 08:28:07;;;;;;;6.53;5.97;;;;;;;28.29;43.07;98712.56;7035733;28;20245;-83
2022/08/25 08:31:29;;;;;;;6.63;6.10;;;;;;;29.44;41.72;98733.13;7026527;28;20249;-84
2022/08/25 08:34:51;;;;;;;5.60;5.07;;;;;;;29.81;39.71;98688.75;7010724;28;20222;-83
2022/08/25 08:38:12;;;;;;;7.17;6.10;;;;;;;29.24;41.72;98722.69;7024736;28;20570;-82
2022/08/25 08:45:31;;;;;;;5.80;5.30;;;;;;;31.03;38.59;98708.84;7019052;28;20233;-82
2022/08/25 08:49:01;;;;;;;6.33;5.73;;;;;;;32.76;35.29;98704.25;7006316;28;20261;-82
2022/08/25 08:52:24;;;;;;;6.30;5.10;;;;;;;32.20;36.63;98701.56;7007426;28;20192;-82
2022/08/25 08:55:49;;;;;;;7.07;5.73;;;;;;;32.09;36.50;98695.66;7033711;28;20240;-82
2022/08/25 08:59:18;;;;;;;6.87;5.57;;;;;;;32.78;34.81;98693.53;7005349;28;20337;-82
2022/08/25 09:02:43;;;;;;;5.47;5.03;;;;;;;32.86;34.78;98706.56;7006371;28;20185;-82
2022/08/25 09:06:08;;;;;;;8.80;5.87;;;;;;;32.63;34.95;98693.44;7027678;28;20593;-82
2022/08/25 09:09:33;;;;;;;6.40;5.80;;;;;;;31.41;36.58;98701.97;7033390;28;20213;-82
2022/08/25 09:13:03;;;;;;;6.13;5.63;;;;;;;30.35;39.54;98696.19;7034265;28;20661;-82
2022/08/25 09:20:29;;;;;;;6.10;5.17;;;;;;;31.86;36.66;98691.66;7034519;28;20262;-82
2022/08/25 09:24:07;;;;;;;6.00;5.40;;;;;;;30.64;38.68;98682.28;7017810;28;20245;-82
2022/08/25 09:27:35;;;;;;;6.77;5.60;;;;;;;31.15;37.62;98681.88;7005784;28;20237;-82
2022/08/25 09:31:00;;;;;;;6.17;5.57;;;;;;;31.70;36.35;98681.47;7006641;28;20190;-82
2022/08/25 09:34:26;;;;;;;6.37;5.77;;;;;;;31.93;35.52;98675.16;7034250;28;20239;-82
2022/08/25 09:37:57;;;;;;;6.13;5.63;;;;;;;30.17;38.34;98677.97;7030151;28;20726;-82
2022/08/25 09:41:35;;;;;;;7.00;5.13;;;;;;;30.37;38.65;98674.41;7023878;28;20203;-82
2022/08/25 09:44:57;;;;;;;6.57;5.27;;;;;;;31.69;36.12;98668.69;7016531;28;20222;-82
2022/08/25 09:48:24;;;;;;;5.97;4.70;;;;;;;32.79;34.33;98670.03;7006914;28;20321;-82
2022/08/25 09:51:47;;;;;;;7.03;4.80;;;;;;;33.17;33.55;98659.19;7005074;28;20349;-82
2022/08/25 09:55:31;;;;;;;5.37;4.87;;;;;;;31.12;36.92;98657.47;7015682;28;20319;-80
2022/08/25 09:58:54;;;;;;;9.03;5.27;;;;;;;31.66;35.50;98661.03;7029935;28;20658;-80
2022/08/25 10:02:24;;;;;;;5.40;4.90;;;;;;;32.54;34.04;98640.50;7020554;28;20224;-81
2022/08/25 10:05:59;;;;;;;4.77;4.33;;;;;;;31.75;34.97;98643.09;7033127;28;20284;-83
2022/08/25 10:09:28;;;;;;;5.90;4.90;;;;;;;31.56;35.33;98614.91;7006194;28;20266;-81
2022/08/25 10:12:49;;;;;;;5.13;4.67;;;;;;;31.57;35.74;98641.63;7024975;28;20211;-82
2022/08/25 10:16:14;;;;;;;5.40;4.90;;;;;;;32.60;34.45;98641.88;7014446;28;20275;-82
2022/08/25 10:19:36;;;;;;;5.07;4.57;;;;;;;33.30;32.63;98640.44;7005024;28;20201;-83
2022/08/25 10:23:10;;;;;;;4.70;4.30;;;;;;;34.50;30.53;98626.34;7025870;28;20201;-82
2022/08/25 10:26:41;;;;;;;5.37;4.20;;;;;;;34.53;30.67;98613.59;7031949;28;20757;-81
2022/08/25 10:30:16;;;;;;;23.30;21.00;;;;;;;32.91;33.14;98616.91;7015913;28;20219;-79
2022/08/25 10:33:44;;;;;;;66.83;58.33;;;;;;;32.70;33.37;98602.31;7011753;28;20305;-80
2022/08/25 10:37:13;;;;;;;30.53;27.10;;;;;;;32.91;32.79;98610.53;7031704;28;20185;-82
2022/08/25 10:40:42;;;;;;;28.03;25.37;;;;;;;33.57;32.06;98600.41;7031066;28;20184;-80
2022/08/25 10:48:23;;;;;;;5.20;4.70;;;;;;;33.27;31.51;98594.44;7031453;28;20227;-81
2022/08/25 10:51:53;;;;;;;10.40;9.47;;;;;;;34.30;30.55;98596.69;7009396;28;20258;-82
2022/08/25 10:55:19;;;;;;;12.17;11.17;;;;;;;34.87;29.32;98590.38;7004327;28;20263;-80
2022/08/25 10:59:03;;;;;;;9.70;8.90;;;;;;;34.83;29.41;98590.28;7004665;28;20681;-81
2022/08/25 11:03:12;;;;;;;6.87;6.17;;;;;;;35.08;28.96;98586.00;7004533;28;20230;-80
2022/08/25 11:06:40;;;;;;;4.80;4.40;;;;;;;34.78;29.23;98570.97;6994156;28;20262;-80
2022/08/25 11:10:08;;;;;;;4.13;3.83;;;;;;;34.37;29.81;98560.44;7006183;28;20724;-81
2022/08/25 11:13:44;;;;;;;4.50;4.20;;;;;;;35.17;28.39;98557.72;7026267;28;20213;-88
2022/08/25 11:17:10;;;;;;;4.43;4.07;;;;;;;34.04;30.19;98571.28;7008785;28;20602;-84
2022/08/25 11:20:40;;;;;;;4.17;3.77;;;;;;;33.13;31.56;98551.28;7014749;28;20194;-84
2022/08/25 11:24:08;;;;;;;4.27;3.90;;;;;;;33.86;30.29;98552.44;7031741;28;20230;-84
2022/08/25 11:27:32;;;;;;;5.50;3.97;;;;;;;33.77;29.71;98547.03;7031547;28;20211;-84
2022/08/25 11:30:56;;;;;;;3.80;3.50;;;;;;;33.41;30.50;98547.28;7004857;28;20209;-85
2022/08/25 11:34:18;;;;;;;3.77;3.40;;;;;;;34.27;29.21;98540.63;7003636;28;20343;-84
2022/08/25 11:37:46;;;;;;;4.13;3.80;;;;;;;33.52;30.40;98542.78;7017149;28;20205;-83
2022/08/25 11:41:18;;;;;;;4.20;3.90;;;;;;;33.66;30.97;98547.91;7003358;28;20664;-85
2022/08/25 11:44:48;;;;;;;4.63;4.10;;;;;;;33.73;30.11;98539.69;7004179;28;20298;-84
2022/08/25 11:48:18;;;;;;;4.00;3.43;;;;;;;34.68;29.40;98531.50;7027683;28;20228;-83
2022/08/25 11:51:42;;;;;;;3.83;3.53;;;;;;;35.17;27.64;98524.09;7031760;28;20193;-84
2022/08/25 11:55:05;;;;;;;4.33;3.40;;;;;;;35.66;27.37;98539.03;7025604;28;20239;-84
2022/08/25 11:58:41;;;;;;;3.70;3.40;;;;;;;33.85;28.56;98514.44;7003442;28;20201;-83
2022/08/25 12:02:02;;;;;;;4.13;3.10;;;;;;;33.98;29.32;98543.91;7004105;28;20662;-80
2022/08/25 12:05:50;;;;;;;3.73;3.43;;;;;;;33.29;30.53;98530.59;7003418;28;20347;-81
2022/08/25 12:09:20;;;;;;;4.00;3.60;;;;;;;32.41;31.54;98521.66;7002250;28;20233;-81
2022/08/25 12:13:26;;;;;;;3.50;3.20;;;;;;;33.63;30.00;98540.22;7003922;28;20207;-80
2022/08/25 12:17:08;;;;;;;3.77;3.40;;;;;;;34.19;28.82;98536.03;6954329;28;20636;-81
2022/08/25 12:21:03;;;;;;;2.90;2.70;;;;;;;34.64;26.89;98536.22;7002634;28;20221;-81
2022/08/25 12:24:47;;;;;;;3.33;2.80;;;;;;;35.01;26.43;98534.63;7003352;28;20244;-81
2022/08/25 12:28:20;;;;;;;4.40;3.13;;;;;;;35.27;27.13;98523.50;7002154;28;20206;-81
2022/08/25 12:32:16;;;;;;;3.83;3.13;;;;;;;36.17;25.40;98520.63;7003433;28;20209;-80
2022/08/25 12:35:40;;;;;;;4.13;2.97;;;;;;;35.42;26.77;98525.41;6973769;28;20286;-81
2022/08/25 12:39:17;;;;;;;3.47;3.23;;;;;;;35.49;26.10;98519.91;7030277;28;20235;-81
2022/08/25 12:42:42;;;;;;;3.00;2.80;;;;;;;34.08;28.65;98491.00;7036461;28;20209;-81
2022/08/25 12:46:35;;;;;;;3.40;3.10;;;;;;;34.81;28.02;98511.41;7036170;28;20236;-81
2022/08/25 12:50:35;;;;;;;4.07;3.23;;;;;;;35.94;26.08;98520.66;7028598;28;20252;-81
2022/08/25 12:54:01;;;;;;;3.63;3.03;;;;;;;35.42;26.08;98503.75;7032942;28;20229;-81
2022/08/25 12:57:31;;;;;;;4.50;3.63;;;;;;;34.65;27.57;98516.25;7035481;28;20580;-82
2022/08/25 13:01:13;;;;;;;4.10;3.40;;;;;;;33.20;29.71;98509.56;7035864;28;20189;-81
2022/08/25 13:05:03;;;;;;;3.50;3.20;;;;;;;34.12;28.82;98507.84;7035190;28;20217;-81
2022/08/25 13:08:38;;;;;;;3.50;3.20;;;;;;;34.70;27.41;98512.34;7034036;28;20205;-80
2022/08/25 13:12:06;;;;;;;4.80;3.20;;;;;;;34.88;26.86;98460.28;7035241;28;20225;-81
2022/08/25 13:15:35;;;;;;;2.97;2.77;;;;;;;35.14;26.32;98508.81;7035191;28;20362;-81
2022/08/25 13:19:00;;;;;;;2.90;2.70;;;;;;;34.72;27.07;98490.38;7034695;28;20618;-81
2022/08/25 13:22:23;;;;;;;3.07;2.70;;;;;;;35.17;26.06;98451.19;7035164;28;20341;-81
2022/08/25 13:25:49;;;;;;;3.10;2.90;;;;;;;35.05;26.52;98490.63;7034423;28;20214;-81
2022/08/25 13:29:14;;;;;;;3.50;3.20;;;;;;;35.00;26.46;98490.94;7034510;28;20241;-81
2022/08/25 13:32:37;;;;;;;3.07;2.77;;;;;;;34.71;27.32;98478.34;7035164;28;20213;-80
2022/08/25 13:39:38;;;;;;;3.40;3.10;;;;;;;34.04;27.83;98486.50;7034125;28;20193;-81
2022/08/25 13:43:06;;;;;;;3.17;2.97;;;;;;;33.83;27.71;98475.63;7035927;28;20262;-82
2022/08/25 13:46:28;;;;;;;3.37;3.07;;;;;;;33.67;28.21;98468.44;7035040;28;20231;-81
2022/08/25 13:49:49;;;;;;;3.47;3.17;;;;;;;33.21;29.15;98472.88;7033851;28;20777;-79
2022/08/25 13:53:15;;;;;;;3.23;3.03;;;;;;;33.34;28.85;98459.63;7025412;28;20223;-81
2022/08/25 13:56:39;;;;;;;3.27;3.07;;;;;;;33.20;28.88;98456.44;7006299;28;20235;-81
2022/08/25 14:00:06;;;;;;;3.50;3.20;;;;;;;33.13;29.30;98450.69;7006434;28;20251;-81
2022/08/25 14:03:33;;;;;;;3.47;3.17;;;;;;;33.31;29.17;98451.97;7010577;28;20258;-81
2022/08/25 14:07:15;;;;;;;3.80;3.50;;;;;;;33.72;28.93;98449.38;7035193;28;20598;-81
2022/08/25 14:10:40;;;;;;;3.40;2.80;;;;;;;33.33;29.22;98456.03;7034229;28;20601;-81
2022/08/25 14:14:07;;;;;;;4.47;3.17;;;;;;;33.39;28.98;98465.75;7033207;28;20234;-81
2022/08/25 14:17:30;;;;;;;3.50;3.20;;;;;;;33.44;28.20;98459.88;7034026;28;20296;-80
2022/08/25 14:20:53;;;;;;;4.03;3.10;;;;;;;34.11;27.89;98445.50;7034199;28;20232;-81
2022/08/25 14:24:16;;;;;;;5.20;3.10;;;;;;;33.89;28.10;98453.78;7035217;28;20228;-82
2022/08/25 14:27:41;;;;;;;3.33;3.07;;;;;;;33.54;27.80;98452.94;7043041;28;20300;-81
2022/08/25 14:31:07;;;;;;;3.37;3.10;;;;;;;33.19;28.62;98450.03;7035944;28;20213;-81
2022/08/25 14:34:33;;;;;;;3.40;3.10;;;;;;;33.62;28.66;98444.34;7024856;28;20227;-80
2022/08/25 14:37:54;;;;;;;3.23;2.93;;;;;;;33.40;28.19;98447.81;7004524;28;20286;-81
2022/08/25 14:41:16;;;;;;;3.17;2.97;;;;;;;33.64;28.12;98435.59;7005406;28;20296;-80
2022/08/25 14:44:38;;;;;;;3.10;2.90;;;;;;;35.02;26.47;98436.13;7005226;28;20620;-80
2022/08/25 14:48:05;;;;;;;3.30;3.00;;;;;;;35.21;25.85;98436.09;7003283;28;20295;-81
2022/08/25 14:51:28;;;;;;;4.07;2.87;;;;;;;35.62;25.32;98432.38;7005192;28;20236;-81
2022/08/25 14:54:50;;;;;;;3.23;3.03;;;;;;;34.96;25.47;98392.78;7005501;28;20728;-81
2022/08/25 14:58:12;;;;;;;3.13;2.63;;;;;;;35.57;25.65;98423.44;7005263;28;20205;-82
2022/08/25 15:01:33;;;;;;;5.10;2.90;;;;;;;35.98;24.55;98426.09;7006019;28;20216;-80
2022/08/25 15:04:58;;;;;;;3.57;2.60;;;;;;;36.10;24.51;98419.44;7005280;28;20298;-81
2022/08/25 15:12:00;;;;;;;4.67;3.10;;;;;;;34.54;27.84;98417.19;7011996;28;20210;-81
2022/08/25 15:15:25;;;;;;;2.90;2.70;;;;;;;34.19;27.64;98416.47;7013505;28;20244;-80
2022/08/25 15:18:46;;;;;;;3.40;3.10;;;;;;;34.64;27.38;98401.78;7010335;28;20243;-81
2022/08/25 15:22:08;;;;;;;3.90;3.10;;;;;;;33.30;29.12;98395.25;7005305;28;20775;-80
2022/08/25 15:25:31;;;;;;;3.40;3.10;;;;;;;34.25;27.85;98395.38;7005033;28;20897;-80
2022/08/25 15:28:52;;;;;;;3.40;3.10;;;;;;;33.92;28.04;98392.31;7003816;28;20382;-79
2022/08/25 15:32:14;;;;;;;6.37;3.07;;;;;;;33.74;28.34;98402.28;7004703;28;20607;-80
2022/08/25 15:35:36;;;;;;;3.30;3.10;;;;;;;33.96;28.54;98403.59;7003956;28;20248;-81
2022/08/25 15:38:58;;;;;;;3.30;3.10;;;;;;;33.27;29.32;98401.56;7003615;28;20208;-79
2022/08/25 15:42:20;;;;;;;3.93;3.27;;;;;;;32.67;30.33;98398.38;7002553;28;20254;-79
2022/08/25 15:45:42;;;;;;;3.47;3.17;;;;;;;33.68;28.82;98386.97;7001433;28;20241;-80
2022/08/25 15:49:04;;;;;;;3.13;2.83;;;;;;;33.72;28.57;98398.22;7002016;28;20260;-80
2022/08/25 15:52:27;;;;;;;3.40;3.10;;;;;;;33.77;28.76;98389.56;7024653;28;20224;-80
2022/08/25 15:55:49;;;;;;;3.33;3.03;;;;;;;34.79;27.05;98365.25;7030222;28;20270;-79
2022/08/25 15:59:13;;;;;;;3.27;2.70;;;;;;;35.04;26.49;98386.13;7030502;28;20212;-79
2022/08/25 16:02:34;;;;;;;3.10;2.70;;;;;;;35.09;26.33;98387.81;7029849;28;20204;-79
2022/08/25 16:05:56;;;;;;;5.63;3.00;;;;;;;35.17;26.29;98372.72;7030567;28;20358;-79
2022/08/25 16:09:18;;;;;;;3.67;2.77;;;;;;;34.71;26.48;98379.50;7029458;28;20310;-79
2022/08/25 16:12:39;;;;;;;3.93;2.90;;;;;;;35.05;26.07;98381.31;7030651;28;20666;-79
2022/08/25 16:16:03;;;;;;;4.17;3.00;;;;;;;35.30;25.89;98377.78;7033029;28;20365;-78
2022/08/25 16:19:24;;;;;;;2.60;2.40;;;;;;;35.42;25.85;98380.34;7049087;28;20192;-81
2022/08/25 16:22:46;;;;;;;3.17;2.87;;;;;;;35.42;25.60;98380.34;7046054;28;20213;-80
2022/08/25 16:26:09;;;;;;;4.00;3.00;;;;;;;35.52;25.20;98373.28;7035615;28;20596;-79
2022/08/25 16:29:31;;;;;;;3.00;2.80;;;;;;;35.52;25.78;98381.69;7035011;28;20286;-80
2022/08/25 16:32:54;;;;;;;4.03;2.83;;;;;;;35.22;25.42;98381.63;7036134;28;20205;-80